Terminal Aerodrome Forecast
Issued by NWS

Home | Current Version | Previous Version | Text Only | Print | Product List | Glossary On
Versions: 1 2 3 4 5 6 7 8 9 10 11 12 13 14 15 16 17 18 19
000
FTUS45 KLKN 191720
TAFTPH
TAF
KTPH 191720Z 1918/2018 22010KT P6SM SCT009 BKN040
      TEMPO 1918/1922 4SM -DZ BR BKN009
     FM200200 16006KT P6SM BKN040
     FM200800 VRB06KT 1/2SM FG BKN005=

USA.gov is the U.S. government's official web portal to all federal, state and local government web resources and services.